createdAt,value
2023-01-01T09:20:00.146Z,4.90
2023-01-01T09:22:27.042Z,3.80
2023-01-01T09:24:54.012Z,4.33
2023-01-01T09:27:20.985Z,4.20
2023-01-01T09:29:47.979Z,4.27
2023-01-01T09:32:15.036Z,5.30
2023-01-01T09:34:44.016Z,4.90
2023-01-01T09:37:14.281Z,4.60
2023-01-01T09:39:41.245Z,4.47
2023-01-01T09:42:20.195Z,4.43
2023-01-01T09:45:15.522Z,4.40
2023-01-01T09:47:58.033Z,3.60
2023-01-01T09:50:32.029Z,3.80
2023-01-01T09:53:04.219Z,3.50
2023-01-01T09:55:45.986Z,3.33
2023-01-01T09:58:13.474Z,3.17
2023-01-01T10:00:44.608Z,3.00
2023-01-01T10:03:37.424Z,3.30
2023-01-01T10:06:10.251Z,3.43
2023-01-01T10:08:41.160Z,2.73
2023-01-01T10:11:35.427Z,2.77
2023-01-01T10:14:11.919Z,3.03
2023-01-01T10:16:46.581Z,3.20
2023-01-01T10:19:41.722Z,2.40
2023-01-01T10:22:17.071Z,3.43
2023-01-01T10:24:49.445Z,2.70
2023-01-01T10:27:26.182Z,2.73
2023-01-01T10:29:56.838Z,2.80
2023-01-01T10:32:32.447Z,2.97
2023-01-01T10:35:01.172Z,3.10
2023-01-01T10:37:35.729Z,3.13
2023-01-01T10:40:16.204Z,2.70
2023-01-01T10:42:47.160Z,2.57
2023-01-01T10:45:38.803Z,2.80
2023-01-01T10:48:26.408Z,2.50
2023-01-01T10:51:01.984Z,3.30
2023-01-01T10:53:58.319Z,3.20
2023-01-01T18:02:13.791Z,18.60
2023-01-01T18:04:41.572Z,16.80
2023-01-01T18:07:08.508Z,15.53
2023-01-01T18:09:38.217Z,12.47
2023-01-01T18:12:05.980Z,10.00
2023-01-01T18:14:33.023Z,9.97
2023-01-01T18:17:00.202Z,9.37
2023-01-01T18:19:27.816Z,10.03
2023-01-01T18:21:55.113Z,10.17
2023-01-01T18:24:22.185Z,11.17
2023-01-01T18:26:49.103Z,13.40
2023-01-01T18:29:16.294Z,14.10
2023-01-01T18:31:44.029Z,14.50
2023-01-01T18:34:11.542Z,15.07
2023-01-01T18:36:39.525Z,13.77
2023-01-01T18:39:20.829Z,12.00
2023-01-01T18:42:02.238Z,13.53
2023-01-01T18:44:31.392Z,13.07
2023-01-01T18:47:07.053Z,14.67
2023-01-01T18:49:35.847Z,14.23
2023-01-01T18:52:08.674Z,13.60
2023-01-01T18:54:36.029Z,13.23
2023-01-01T18:57:29.274Z,13.23
2023-01-01T19:00:18.900Z,12.90
2023-01-01T19:02:52.892Z,13.03
2023-01-01T19:05:30.554Z,14.00
2023-01-01T19:08:06.645Z,13.87
2023-01-01T19:10:44.084Z,14.13
2023-01-01T19:13:22.885Z,12.53
2023-01-01T19:15:54.642Z,11.50
2023-01-01T19:18:23.907Z,10.17
2023-01-01T19:21:02.633Z,8.37
2023-01-01T19:23:30.516Z,5.33
2023-01-01T19:26:00.738Z,5.03
2023-01-01T19:28:36.202Z,5.57
2023-01-01T19:31:05.465Z,6.33
2023-01-01T19:33:32.502Z,5.63
2023-01-01T19:35:59.462Z,5.40
2023-01-01T19:38:26.494Z,5.73
2023-01-01T19:40:53.681Z,5.53
2023-01-01T19:43:21.413Z,5.33
2023-01-01T19:45:48.488Z,4.57
2023-01-01T19:48:15.550Z,5.97
2023-01-01T19:50:42.558Z,5.27
2023-01-01T19:53:09.530Z,5.30
2023-01-01T19:55:36.580Z,5.40
2023-01-01T19:58:03.616Z,5.90
2023-01-01T20:00:30.573Z,5.80
2023-01-01T20:03:19.013Z,7.80
2023-01-01T20:05:44.706Z,9.07
2023-01-01T20:08:11.677Z,10.27
2023-01-01T20:10:38.651Z,9.97
2023-01-01T20:13:06.599Z,10.87
2023-01-01T20:15:33.548Z,10.30
2023-01-01T20:18:00.616Z,10.00
2023-01-01T20:20:27.608Z,10.83
2023-01-01T20:22:55.788Z,10.07
2023-01-01T20:25:22.703Z,11.00
2023-01-01T20:28:08.375Z,10.00
2023-01-01T20:30:37.203Z,5.03
2023-01-01T20:33:04.449Z,6.23
2023-01-01T20:35:57.283Z,5.03
2023-01-01T20:38:24.200Z,4.50
2023-01-01T20:40:51.176Z,3.90
2023-01-01T20:43:18.128Z,3.23
2023-01-01T20:45:45.126Z,3.80
2023-01-01T20:48:17.821Z,3.60
2023-01-01T20:50:46.637Z,3.10
2023-01-01T20:53:13.569Z,2.70
2023-01-01T20:55:40.497Z,3.10
2023-01-01T20:58:07.441Z,3.17
2023-01-01T21:00:34.389Z,3.00
2023-01-01T21:03:01.394Z,3.00
2023-01-01T21:05:28.741Z,3.20
2023-01-01T21:07:55.678Z,3.27
2023-01-01T21:10:22.561Z,2.83
2023-01-01T21:12:51.423Z,3.33
2023-01-01T21:15:20.035Z,3.13
2023-01-01T21:17:47.095Z,3.20
2023-01-01T21:20:14.052Z,3.03
2023-01-01T21:22:44.170Z,3.27
2023-01-01T21:25:50.260Z,3.23
2023-01-01T21:28:14.570Z,3.20
2023-01-01T21:30:53.791Z,3.17
2023-01-01T21:33:31.190Z,3.73
2023-01-01T21:36:01.850Z,3.57
2023-01-01T21:38:31.580Z,3.03
2023-01-01T21:41:00.116Z,3.63
2023-01-01T21:43:34.779Z,3.63
